createdAt,value
2023-01-15T00:02:16.753Z,178.60
2023-01-15T00:04:44.029Z,170.87
2023-01-15T00:07:11.299Z,172.57
2023-01-15T00:09:38.336Z,173.90
2023-01-15T00:12:05.751Z,175.50
2023-01-15T00:14:32.793Z,172.07
2023-01-15T00:16:59.853Z,170.47
2023-01-15T00:19:26.875Z,171.27
2023-01-15T00:21:54.275Z,174.33
2023-01-15T00:24:40.261Z,175.20
2023-01-15T00:27:29.859Z,176.40
2023-01-15T00:29:56.934Z,171.37
2023-01-15T00:32:27.153Z,171.00
2023-01-15T00:34:56.168Z,169.37
2023-01-15T00:37:23.227Z,173.80
2023-01-15T00:39:50.347Z,167.40
2023-01-15T00:42:17.848Z,168.70
2023-01-15T00:44:46.815Z,171.43
2023-01-15T00:47:15.243Z,169.30
2023-01-15T00:49:42.987Z,170.80
2023-01-15T00:52:11.486Z,175.50
2023-01-15T00:54:38.582Z,169.67
2023-01-15T00:57:05.693Z,169.17
2023-01-15T00:59:32.803Z,166.70
2023-01-15T01:01:59.942Z,174.77
2023-01-15T01:04:27.142Z,170.17
2023-01-15T01:06:55.679Z,169.43
2023-01-15T01:09:22.752Z,174.10
2023-01-15T01:11:50.738Z,166.97
2023-01-15T01:14:17.877Z,171.73
2023-01-15T01:16:44.984Z,171.07
2023-01-15T01:19:17.581Z,163.07
2023-01-15T01:21:45.618Z,167.63
2023-01-15T01:24:16.460Z,172.03
2023-01-15T01:26:45.417Z,171.00
2023-01-15T01:29:18.216Z,166.83
2023-01-15T01:31:45.691Z,168.37
2023-01-15T01:34:14.613Z,171.47
2023-01-15T01:36:44.115Z,165.47
2023-01-15T01:39:17.835Z,167.43
2023-01-15T01:41:47.031Z,167.33
2023-01-15T01:44:33.445Z,166.93
2023-01-15T01:47:31.504Z,163.63
2023-01-15T01:50:05.552Z,161.40
2023-01-15T01:52:56.713Z,166.47
2023-01-15T01:55:25.318Z,165.33
2023-01-15T01:57:59.857Z,162.00
2023-01-15T02:00:28.620Z,165.20
2023-01-15T02:02:55.847Z,162.17
2023-01-15T02:05:37.581Z,163.77
2023-01-15T02:08:06.262Z,163.97
2023-01-15T02:10:34.611Z,161.80
2023-01-15T02:13:10.618Z,164.27
2023-01-15T02:15:44.109Z,164.17
2023-01-15T02:18:41.949Z,159.70
2023-01-15T02:21:29.483Z,160.30
2023-01-15T02:24:58.160Z,163.50
2023-01-15T02:27:26.226Z,163.23
2023-01-15T02:30:16.364Z,160.17
2023-01-15T02:32:59.629Z,167.50
2023-01-15T02:35:52.960Z,159.57
2023-01-15T02:38:23.836Z,163.30
2023-01-15T02:40:58.097Z,162.73
2023-01-15T02:43:31.499Z,160.80
2023-01-15T02:46:01.670Z,164.40
2023-01-15T02:48:32.510Z,167.90
2023-01-15T02:51:23.994Z,165.27
2023-01-15T02:53:55.748Z,163.40
2023-01-15T02:56:29.973Z,160.50
2023-01-15T02:59:06.515Z,163.30
2023-01-15T03:02:00.718Z,157.27
2023-01-15T03:04:44.707Z,162.07
2023-01-15T03:07:37.883Z,163.03
2023-01-15T03:10:06.963Z,164.70
2023-01-15T03:13:04.238Z,169.50
2023-01-15T03:16:13.987Z,159.40
2023-01-15T03:18:52.590Z,160.63
2023-01-15T03:21:54.500Z,162.27
2023-01-15T03:25:07.881Z,163.77
2023-01-15T03:27:41.671Z,161.43
2023-01-15T03:30:19.853Z,165.53
2023-01-15T03:32:47.797Z,165.63
2023-01-15T03:35:39.803Z,161.93
2023-01-15T03:38:08.975Z,159.10
2023-01-15T03:40:40.552Z,160.60
2023-01-15T03:43:32.180Z,162.57
2023-01-15T03:46:07.770Z,159.13
2023-01-15T03:48:39.600Z,158.23
2023-01-15T03:51:22.248Z,163.50
2023-01-15T03:53:56.499Z,163.67
2023-01-15T03:56:55.803Z,169.40
2023-01-15T03:59:57.424Z,165.57
2023-01-15T04:02:25.545Z,161.27
2023-01-15T04:04:54.347Z,160.33
2023-01-15T04:07:24.394Z,159.00
2023-01-15T04:09:51.688Z,163.77
2023-01-15T04:12:18.763Z,161.77
2023-01-15T04:14:48.444Z,166.90
2023-01-15T04:17:21.444Z,165.83
2023-01-15T04:19:48.711Z,158.37
2023-01-15T04:22:15.770Z,169.00
2023-01-15T04:24:42.954Z,159.67
2023-01-15T04:27:10.038Z,160.87
2023-01-15T04:29:37.172Z,161.77
2023-01-15T04:32:04.769Z,163.17
2023-01-15T04:34:31.915Z,166.97
2023-01-15T04:36:58.981Z,162.40
2023-01-15T04:39:26.401Z,165.73
2023-01-15T04:42:11.950Z,165.83
2023-01-15T04:44:39.609Z,154.53
2023-01-15T04:47:07.182Z,156.30
2023-01-15T04:49:34.841Z,157.57
2023-01-15T04:52:02.077Z,155.47
2023-01-15T04:54:29.317Z,156.97
2023-01-15T04:56:56.623Z,154.83
2023-01-15T04:59:27.253Z,157.60
2023-01-15T05:02:03.782Z,156.57
2023-01-15T05:04:33.123Z,165.17
2023-01-15T05:07:05.074Z,155.80
2023-01-15T05:09:32.706Z,156.70
2023-01-15T05:11:59.759Z,157.57
2023-01-15T05:14:26.987Z,156.60
2023-01-15T05:16:54.125Z,156.73
2023-01-15T05:19:21.362Z,158.03
2023-01-15T05:21:48.468Z,155.10
2023-01-15T05:24:18.031Z,155.00
2023-01-15T05:26:45.739Z,158.87
2023-01-15T05:29:13.628Z,155.23
2023-01-15T05:31:42.694Z,155.73
2023-01-15T05:34:10.112Z,155.80
2023-01-15T05:36:37.757Z,154.67
2023-01-15T05:39:05.400Z,152.80
2023-01-15T05:41:50.627Z,156.67
2023-01-15T05:44:19.999Z,156.47
2023-01-15T05:46:48.540Z,158.10
2023-01-15T05:49:19.523Z,155.60
2023-01-15T05:51:47.431Z,156.47
2023-01-15T05:54:22.960Z,156.97
2023-01-15T05:56:50.244Z,156.20
2023-01-15T05:59:20.298Z,156.40
2023-01-15T06:01:47.922Z,157.57
2023-01-15T06:04:15.860Z,159.97
2023-01-15T06:06:43.479Z,154.40
2023-01-15T06:09:10.641Z,154.77
2023-01-15T06:11:37.774Z,157.73
2023-01-15T06:14:05.725Z,165.60
2023-01-15T06:16:33.335Z,160.47
2023-01-15T06:19:05.483Z,159.10
2023-01-15T06:21:35.041Z,158.57
2023-01-15T06:24:03.021Z,157.60
2023-01-15T06:26:31.573Z,160.47
2023-01-15T06:28:58.837Z,156.97
2023-01-15T06:31:29.037Z,155.37
2023-01-15T06:33:56.455Z,155.97
2023-01-15T06:36:26.792Z,153.77
2023-01-15T06:38:54.082Z,156.17
2023-01-15T06:41:43.447Z,153.07
2023-01-15T06:44:35.461Z,161.40
2023-01-15T06:47:22.143Z,157.10
2023-01-15T06:49:55.784Z,154.47
2023-01-15T06:52:27.701Z,156.03
2023-01-15T06:54:55.552Z,156.57
2023-01-15T06:57:22.722Z,158.10
2023-01-15T06:59:50.981Z,156.80
2023-01-15T07:02:18.667Z,157.60
2023-01-15T07:04:47.022Z,160.90
2023-01-15T07:07:16.656Z,158.63
2023-01-15T07:09:43.850Z,157.43
2023-01-15T07:12:11.491Z,160.27
2023-01-15T07:14:38.701Z,157.03
2023-01-15T07:17:05.904Z,158.97
2023-01-15T07:19:32.947Z,154.93
2023-01-15T07:21:59.941Z,156.03
2023-01-15T07:24:27.203Z,156.57
2023-01-15T07:26:54.315Z,156.90
2023-01-15T07:29:21.737Z,157.47
2023-01-15T07:31:49.559Z,160.30
2023-01-15T07:34:16.787Z,157.20
2023-01-15T07:36:44.221Z,157.73
2023-01-15T07:39:12.319Z,164.17
2023-01-15T07:41:58.600Z,158.77
2023-01-15T07:44:44.156Z,166.30
2023-01-15T07:47:39.800Z,158.83
2023-01-15T07:50:12.479Z,157.17
2023-01-15T07:52:39.599Z,157.47
2023-01-15T07:55:08.675Z,159.77
2023-01-15T07:57:37.331Z,157.53
2023-01-15T08:00:07.514Z,157.20
2023-01-15T08:02:40.321Z,161.40
2023-01-15T08:05:09.247Z,157.93
2023-01-15T08:07:41.016Z,165.20
2023-01-15T08:10:10.841Z,156.67
2023-01-15T08:12:57.483Z,157.57
2023-01-15T08:15:25.958Z,153.47
2023-01-15T08:17:53.310Z,157.47
2023-01-15T08:20:25.546Z,159.07
2023-01-15T08:22:53.532Z,158.80
2023-01-15T08:25:24.706Z,154.83
2023-01-15T08:27:52.773Z,155.93
2023-01-15T08:30:23.939Z,164.40
2023-01-15T08:32:51.361Z,160.30
2023-01-15T08:35:18.437Z,160.10
2023-01-15T08:37:45.503Z,160.67
2023-01-15T08:40:13.525Z,160.87
2023-01-15T08:42:41.177Z,158.63
2023-01-15T08:45:09.632Z,159.60
2023-01-15T08:47:37.590Z,160.77
2023-01-15T08:50:07.756Z,165.33
2023-01-15T08:52:34.819Z,160.83
2023-01-15T08:55:01.947Z,159.10
2023-01-15T08:57:28.999Z,161.03
2023-01-15T08:59:56.050Z,161.67
2023-01-15T09:02:23.291Z,165.03
2023-01-15T09:04:52.598Z,160.27
2023-01-15T09:07:20.361Z,163.97
2023-01-15T09:09:47.562Z,161.43
2023-01-15T09:12:14.772Z,161.87
2023-01-15T09:14:57.618Z,190.23
2023-01-15T09:17:29.001Z,163.43
2023-01-15T09:19:56.026Z,160.90
2023-01-15T09:22:23.091Z,169.80
2023-01-15T09:24:50.860Z,200.20
2023-01-15T09:27:17.972Z,165.90
2023-01-15T09:29:45.032Z,171.20
2023-01-15T09:32:12.217Z,162.23
2023-01-15T09:34:39.257Z,158.60
2023-01-15T09:37:06.362Z,160.73
2023-01-15T09:39:33.485Z,165.00
2023-01-15T09:42:16.214Z,162.70
2023-01-15T09:45:07.432Z,160.67
2023-01-15T09:47:42.915Z,162.30
2023-01-15T09:50:25.810Z,158.03
2023-01-15T09:53:10.799Z,162.60
2023-01-15T09:55:46.889Z,160.37
2023-01-15T09:58:18.169Z,163.90
2023-01-15T10:00:51.070Z,159.83
2023-01-15T10:03:29.577Z,159.80
2023-01-15T10:05:59.239Z,158.67
2023-01-15T10:08:33.934Z,160.77
2023-01-15T10:11:48.933Z,158.53
2023-01-15T10:14:39.144Z,156.50
2023-01-15T10:17:37.082Z,156.83
2023-01-15T10:20:04.574Z,158.03
2023-01-15T10:22:53.134Z,160.50
2023-01-15T10:25:29.030Z,159.33
2023-01-15T10:28:03.524Z,166.70
2023-01-15T10:30:47.999Z,157.13
2023-01-15T10:33:28.230Z,161.37
2023-01-15T10:36:08.403Z,169.23
2023-01-15T10:39:03.104Z,163.97
2023-01-15T10:41:57.801Z,173.07
2023-01-15T10:44:51.410Z,162.13
2023-01-15T10:47:23.385Z,161.77
2023-01-15T10:49:51.413Z,159.07
2023-01-15T10:52:32.502Z,164.83
2023-01-15T10:55:31.286Z,161.87
2023-01-15T10:58:59.648Z,160.77
2023-01-15T11:01:27.878Z,161.00
2023-01-15T11:03:55.320Z,165.17
2023-01-15T11:06:25.688Z,162.60
2023-01-15T11:09:12.054Z,160.03
2023-01-15T11:12:01.652Z,161.17
2023-01-15T11:15:03.480Z,161.10
2023-01-15T11:18:02.722Z,164.23
2023-01-15T11:20:36.352Z,160.90
2023-01-15T11:23:16.913Z,163.33
2023-01-15T11:25:59.944Z,162.73
2023-01-15T11:28:40.231Z,163.80
2023-01-15T11:31:08.523Z,164.07
2023-01-15T11:33:36.770Z,167.03
2023-01-15T11:36:21.825Z,161.70
2023-01-15T11:38:51.149Z,164.17
2023-01-15T11:41:57.137Z,164.03
2023-01-15T11:44:42.929Z,165.97
2023-01-15T11:47:37.871Z,163.27
2023-01-15T11:50:36.965Z,166.23
2023-01-15T11:53:04.255Z,164.30
2023-01-15T11:55:31.584Z,166.63
2023-01-15T11:57:59.259Z,166.53
2023-01-15T12:00:42.853Z,164.23
2023-01-15T12:03:21.426Z,163.23
2023-01-15T12:06:05.696Z,167.03
2023-01-15T12:08:55.755Z,166.93
2023-01-15T12:11:37.991Z,162.10
2023-01-15T12:14:59.808Z,167.53
2023-01-15T12:17:55.547Z,166.63
2023-01-15T12:20:29.991Z,166.10
2023-01-15T12:23:41.157Z,162.03
2023-01-15T12:26:29.097Z,163.57
2023-01-15T12:29:31.359Z,169.17
2023-01-15T12:32:15.911Z,163.57
2023-01-15T12:35:07.798Z,167.37
2023-01-15T12:37:47.902Z,167.13
2023-01-15T12:40:14.900Z,164.30
2023-01-15T12:43:05.003Z,164.60
2023-01-15T12:45:44.788Z,164.90
2023-01-15T12:48:54.491Z,161.47
2023-01-15T12:51:29.922Z,165.10
2023-01-15T12:54:05.894Z,176.07
2023-01-15T12:57:02.984Z,167.57
2023-01-15T12:59:48.471Z,167.57
2023-01-15T13:02:25.869Z,164.73
2023-01-15T13:05:20.103Z,166.60
2023-01-15T13:07:54.880Z,168.23
2023-01-15T13:10:27.283Z,165.63
2023-01-15T13:13:00.755Z,171.97
2023-01-15T13:15:33.516Z,168.10
2023-01-15T13:18:47.415Z,165.30
2023-01-15T13:21:17.532Z,167.83
2023-01-15T13:24:38.609Z,168.53
2023-01-15T13:27:12.171Z,168.57
2023-01-15T13:29:51.178Z,168.37
2023-01-15T13:32:35.281Z,170.03
2023-01-15T13:35:14.311Z,166.37
2023-01-15T13:37:51.500Z,170.00
2023-01-15T13:40:28.842Z,171.33
2023-01-15T13:42:56.620Z,167.43
2023-01-15T13:45:39.734Z,172.33
2023-01-15T13:48:45.791Z,173.37
2023-01-15T13:51:39.224Z,166.87
2023-01-15T13:54:16.977Z,174.37
2023-01-15T13:56:45.733Z,169.77
2023-01-15T13:59:46.174Z,170.60
2023-01-15T14:02:39.029Z,169.10
2023-01-15T14:05:34.552Z,170.17
2023-01-15T14:08:16.009Z,171.57
2023-01-15T14:10:43.191Z,172.97
2023-01-15T14:13:42.675Z,171.93
2023-01-15T14:16:29.065Z,169.57
2023-01-15T14:19:23.330Z,172.23
2023-01-15T14:22:15.770Z,170.20
2023-01-15T14:24:56.331Z,171.10
2023-01-15T14:27:44.313Z,168.63
2023-01-15T14:30:40.623Z,170.87
2023-01-15T14:33:16.615Z,175.33
2023-01-15T14:35:47.314Z,168.50
2023-01-15T14:38:19.190Z,179.50
2023-01-15T14:41:01.216Z,171.47
2023-01-15T14:43:33.526Z,169.97
2023-01-15T14:46:34.269Z,170.33
2023-01-15T14:49:02.469Z,168.40
2023-01-15T14:51:45.629Z,171.30
2023-01-15T14:54:19.800Z,171.03
2023-01-15T14:56:56.608Z,172.97
2023-01-15T14:59:33.305Z,168.57
2023-01-15T15:02:16.047Z,173.53
2023-01-15T15:04:53.907Z,169.67
2023-01-15T15:07:25.403Z,169.67
2023-01-15T15:10:06.283Z,171.30
2023-01-15T15:13:27.942Z,170.60
2023-01-15T15:16:08.390Z,282.77
2023-01-15T15:19:00.366Z,171.17
2023-01-15T15:21:44.202Z,168.17
2023-01-15T15:24:24.778Z,171.83
2023-01-15T15:26:52.287Z,171.23
2023-01-15T15:29:22.143Z,167.97
2023-01-15T15:31:57.431Z,172.47
2023-01-15T15:34:40.305Z,181.67
2023-01-15T15:37:25.808Z,171.57
2023-01-15T15:39:58.581Z,168.67
2023-01-15T15:42:54.035Z,170.57
2023-01-15T15:45:46.891Z,169.43
2023-01-15T15:48:32.286Z,173.77
2023-01-15T15:51:00.175Z,169.07
2023-01-15T15:53:27.216Z,166.63
2023-01-15T15:55:56.040Z,170.60
2023-01-15T15:58:36.306Z,173.17
2023-01-15T16:01:03.653Z,171.80
2023-01-15T16:03:33.345Z,173.27
2023-01-15T16:06:01.462Z,172.23
2023-01-15T16:08:31.502Z,170.13
2023-01-15T16:11:02.492Z,174.47
2023-01-15T16:13:49.164Z,172.17
2023-01-15T16:16:18.375Z,171.47
2023-01-15T16:18:49.905Z,173.07
2023-01-15T16:21:28.502Z,174.07
2023-01-15T16:24:04.804Z,172.00
2023-01-15T16:26:46.855Z,175.27
2023-01-15T16:29:23.662Z,175.67
2023-01-15T16:31:51.725Z,173.60
2023-01-15T16:34:22.505Z,173.77
2023-01-15T16:36:50.224Z,176.07
2023-01-15T16:39:26.419Z,174.93
2023-01-15T16:42:02.310Z,173.43
2023-01-15T16:44:44.112Z,176.13
2023-01-15T16:47:24.717Z,174.67
2023-01-15T16:49:51.862Z,176.10
2023-01-15T16:52:54.034Z,174.60
2023-01-15T16:55:46.819Z,175.33
2023-01-15T16:58:17.541Z,177.80
2023-01-15T17:00:51.415Z,177.73
2023-01-15T17:03:27.653Z,176.70
2023-01-15T17:06:12.423Z,179.90
2023-01-15T17:08:47.513Z,179.40
2023-01-15T17:11:40.992Z,190.57
2023-01-15T17:14:27.074Z,187.47
2023-01-15T17:17:23.090Z,186.73
2023-01-15T17:19:51.816Z,191.47
2023-01-15T17:22:31.768Z,188.97
2023-01-15T17:25:01.151Z,186.77
2023-01-15T17:27:30.214Z,180.17
2023-01-15T17:29:57.282Z,183.57
2023-01-15T17:32:36.116Z,186.07
2023-01-15T17:35:03.301Z,181.37
2023-01-15T17:37:30.366Z,176.20
2023-01-15T17:39:57.397Z,181.43
2023-01-15T17:42:24.559Z,186.90
2023-01-15T17:44:51.589Z,178.30
2023-01-15T17:47:18.669Z,177.47
2023-01-15T17:49:45.767Z,182.50
2023-01-15T17:52:19.715Z,181.40
2023-01-15T17:55:05.682Z,180.37
2023-01-15T17:57:51.539Z,179.40
2023-01-15T18:00:38.055Z,179.73
2023-01-15T18:03:24.120Z,182.60
2023-01-15T18:05:52.570Z,176.87
2023-01-15T18:08:19.888Z,187.83
2023-01-15T18:10:46.926Z,181.83
2023-01-15T18:13:14.016Z,181.63
2023-01-15T18:15:41.034Z,183.07
2023-01-15T18:18:08.237Z,174.93
2023-01-15T18:20:36.027Z,178.33
2023-01-15T18:23:03.126Z,180.97
2023-01-15T18:25:30.180Z,190.07
2023-01-15T18:27:57.232Z,180.37
2023-01-15T18:30:24.272Z,180.53
2023-01-15T18:32:51.320Z,176.37
2023-01-15T18:35:19.457Z,182.20
2023-01-15T18:37:46.482Z,180.50
2023-01-15T18:40:14.014Z,183.77
2023-01-15T18:43:00.376Z,182.57
2023-01-15T18:45:45.807Z,174.90
2023-01-15T18:48:12.874Z,174.97
2023-01-15T18:50:39.900Z,179.60
2023-01-15T18:53:08.619Z,175.63
2023-01-15T18:55:35.745Z,171.17
2023-01-15T18:58:02.821Z,181.73
2023-01-15T19:00:29.973Z,183.40
2023-01-15T19:02:57.021Z,178.87
2023-01-15T19:05:24.237Z,181.77
2023-01-15T19:07:51.490Z,168.80
2023-01-15T19:10:19.511Z,174.73
2023-01-15T19:12:46.853Z,166.73
2023-01-15T19:15:56.004Z,181.43
2023-01-15T19:18:41.904Z,177.13
2023-01-15T19:21:10.532Z,183.07
2023-01-15T19:23:37.574Z,181.07
2023-01-15T19:26:04.883Z,170.43
2023-01-15T19:28:33.408Z,189.83
2023-01-15T19:31:19.010Z,183.47
2023-01-15T19:33:46.093Z,169.27
2023-01-15T19:36:13.164Z,166.60
2023-01-15T19:38:41.415Z,171.20
2023-01-15T19:41:31.376Z,172.33
2023-01-15T19:44:17.178Z,176.73
2023-01-15T19:47:03.988Z,171.30
2023-01-15T19:49:54.819Z,175.70
2023-01-15T19:52:34.621Z,171.33
2023-01-15T19:55:08.419Z,188.10
2023-01-15T19:57:35.475Z,190.23
2023-01-15T20:00:04.406Z,194.60
2023-01-15T20:02:39.607Z,213.57
2023-01-15T20:05:08.276Z,206.30
2023-01-15T20:07:35.595Z,224.20
2023-01-15T20:10:03.720Z,199.33
2023-01-15T20:12:49.139Z,182.73
2023-01-15T20:15:16.371Z,182.67
2023-01-15T20:17:43.525Z,179.20
2023-01-15T20:20:11.501Z,172.60
2023-01-15T20:22:39.078Z,164.63
2023-01-15T20:25:07.073Z,165.07
2023-01-15T20:27:38.025Z,164.33
2023-01-15T20:30:11.101Z,166.30
2023-01-15T20:32:42.355Z,164.23
2023-01-15T20:35:18.819Z,166.73
2023-01-15T20:37:48.095Z,172.50
2023-01-15T20:40:19.019Z,174.77
2023-01-15T20:43:04.420Z,170.57
2023-01-15T20:45:31.780Z,169.27
2023-01-15T20:48:13.585Z,172.73
2023-01-15T20:51:01.023Z,168.03
2023-01-15T20:53:33.546Z,168.93
2023-01-15T20:56:02.293Z,165.90
2023-01-15T20:58:29.477Z,162.80
2023-01-15T21:01:06.390Z,166.73
2023-01-15T21:03:33.566Z,163.37
2023-01-15T21:06:03.806Z,166.90
2023-01-15T21:08:33.618Z,168.60
2023-01-15T21:11:00.970Z,162.93
2023-01-15T21:13:28.071Z,165.33
2023-01-15T21:16:05.158Z,167.93
2023-01-15T21:18:35.639Z,165.57
2023-01-15T21:21:13.633Z,166.80
2023-01-15T21:23:40.894Z,163.83
2023-01-15T21:26:07.939Z,164.13
2023-01-15T21:28:34.956Z,168.20
2023-01-15T21:31:04.160Z,166.30
2023-01-15T21:33:31.245Z,163.50
2023-01-15T21:35:58.333Z,167.33
2023-01-15T21:38:25.444Z,166.33
2023-01-15T21:40:52.480Z,165.80
2023-01-15T21:43:37.842Z,167.27
2023-01-15T21:46:05.940Z,166.50
2023-01-15T21:48:33.785Z,165.93
2023-01-15T21:51:06.140Z,162.37
2023-01-15T21:53:33.568Z,161.40
2023-01-15T21:56:00.638Z,161.97
2023-01-15T21:58:27.746Z,165.93
2023-01-15T22:00:54.801Z,163.43
2023-01-15T22:03:21.976Z,164.17
2023-01-15T22:05:49.000Z,164.53
2023-01-15T22:08:17.244Z,163.37
2023-01-15T22:10:44.549Z,161.97
2023-01-15T22:13:11.692Z,162.87
2023-01-15T22:15:38.749Z,163.83
2023-01-15T22:18:05.822Z,162.10
2023-01-15T22:20:32.985Z,160.37
2023-01-15T22:23:00.034Z,161.27
2023-01-15T22:25:27.072Z,162.13
2023-01-15T22:27:54.106Z,162.43
2023-01-15T22:30:21.258Z,159.33
2023-01-15T22:32:50.610Z,161.17
2023-01-15T22:35:18.596Z,161.73
2023-01-15T22:37:45.674Z,161.10
2023-01-15T22:40:13.386Z,163.47
2023-01-15T22:42:40.403Z,164.80
2023-01-15T22:45:07.940Z,164.23
2023-01-15T22:47:34.966Z,162.07
2023-01-15T22:50:02.031Z,162.13
2023-01-15T22:52:29.358Z,164.97
2023-01-15T22:54:56.530Z,162.20
2023-01-15T22:57:23.686Z,165.00
2023-01-15T22:59:50.731Z,162.20
2023-01-15T23:02:38.395Z,163.67
2023-01-15T23:05:06.882Z,161.10
2023-01-15T23:07:40.549Z,162.40
2023-01-15T23:10:10.638Z,163.47
2023-01-15T23:12:39.363Z,162.80
2023-01-15T23:15:16.096Z,165.07
2023-01-15T23:17:43.961Z,162.37
2023-01-15T23:20:13.071Z,164.80
2023-01-15T23:22:40.231Z,161.80
2023-01-15T23:25:09.206Z,162.17
2023-01-15T23:27:36.514Z,160.13
2023-01-15T23:30:04.402Z,162.87
2023-01-15T23:32:32.463Z,159.40
2023-01-15T23:34:59.473Z,163.50
2023-01-15T23:37:26.503Z,176.00
2023-01-15T23:39:53.563Z,168.37
2023-01-15T23:42:38.955Z,163.87
2023-01-15T23:45:25.344Z,159.83
2023-01-15T23:47:52.350Z,161.73
2023-01-15T23:50:19.514Z,161.63
2023-01-15T23:52:46.579Z,163.37
2023-01-15T23:55:13.666Z,157.30
2023-01-15T23:57:40.733Z,159.53
